createdAt,value
2023-05-22T00:02:06.509Z,100.00
2023-05-22T00:04:35.964Z,100.00
2023-05-22T00:07:04.648Z,100.00
2023-05-22T00:09:32.705Z,100.00
2023-05-22T00:12:01.142Z,100.00
2023-05-22T00:14:29.116Z,100.00
2023-05-22T00:16:58.566Z,100.00
2023-05-22T00:19:27.143Z,100.00
2023-05-22T00:21:56.759Z,100.00
2023-05-22T00:24:24.884Z,100.00
2023-05-22T00:26:53.021Z,100.00
2023-05-22T00:29:21.120Z,100.00
2023-05-22T00:31:49.269Z,100.00
2023-05-22T00:34:17.445Z,100.00
2023-05-22T00:36:45.675Z,100.00
2023-05-22T00:39:15.226Z,100.00
2023-05-22T00:41:43.368Z,100.00
2023-05-22T00:44:12.001Z,100.00
2023-05-22T00:46:40.818Z,100.00
2023-05-22T00:49:08.978Z,100.00
2023-05-22T00:51:37.180Z,100.00
2023-05-22T00:54:06.201Z,100.00
2023-05-22T00:56:36.065Z,100.00
2023-05-22T00:59:04.400Z,100.00
2023-05-22T01:01:38.737Z,100.00
2023-05-22T01:04:10.271Z,100.00
2023-05-22T01:06:39.073Z,100.00
2023-05-22T01:09:07.247Z,100.00
2023-05-22T01:11:44.096Z,100.00
2023-05-22T01:14:20.392Z,100.00
2023-05-22T01:16:59.818Z,100.00
2023-05-22T01:19:50.732Z,100.00
2023-05-22T01:22:32.299Z,100.00
2023-05-22T01:25:21.400Z,100.00
2023-05-22T01:28:21.810Z,100.00
2023-05-22T01:31:00.460Z,100.00
2023-05-22T01:33:29.673Z,100.00
2023-05-22T01:36:01.602Z,100.00
2023-05-22T01:38:31.819Z,100.00
2023-05-22T01:41:00.137Z,100.00
2023-05-22T01:43:28.812Z,100.00
2023-05-22T01:45:58.323Z,100.00
2023-05-22T01:48:26.498Z,100.00
2023-05-22T01:50:56.220Z,100.00
2023-05-22T01:53:30.082Z,100.00
2023-05-22T01:56:05.473Z,100.00
2023-05-22T01:58:40.811Z,100.00
2023-05-22T02:01:13.432Z,100.00
2023-05-22T02:03:42.967Z,100.00
2023-05-22T02:06:15.593Z,100.00
2023-05-22T02:08:44.484Z,100.00
2023-05-22T02:11:15.284Z,100.00
2023-05-22T02:13:43.926Z,100.00
2023-05-22T02:16:14.189Z,100.00
2023-05-22T02:18:43.763Z,100.00
2023-05-22T02:21:12.315Z,100.00
2023-05-22T02:23:40.798Z,100.00
2023-05-22T02:26:09.362Z,100.00
2023-05-22T02:28:38.198Z,100.00
2023-05-22T02:31:07.025Z,100.00
2023-05-22T02:33:36.929Z,100.00
2023-05-22T02:36:05.294Z,100.00
2023-05-22T02:38:33.473Z,100.00
2023-05-22T02:41:02.059Z,100.00
2023-05-22T02:43:30.132Z,100.00
2023-05-22T02:45:58.307Z,100.00
2023-05-22T02:48:26.464Z,100.00
2023-05-22T02:50:56.011Z,100.00
2023-05-22T02:53:24.061Z,100.00
2023-05-22T02:55:53.309Z,100.00
2023-05-22T02:58:23.302Z,100.00
2023-05-22T03:00:53.098Z,100.00
2023-05-22T03:03:21.426Z,100.00
2023-05-22T03:05:50.136Z,100.00
2023-05-22T03:08:20.301Z,100.00
2023-05-22T03:10:48.546Z,100.00
2023-05-22T03:13:16.800Z,100.00
2023-05-22T03:15:45.056Z,100.00
2023-05-22T03:18:13.236Z,100.00
2023-05-22T03:20:42.139Z,100.00
2023-05-22T03:23:11.532Z,100.00
2023-05-22T03:25:41.210Z,100.00
2023-05-22T03:28:09.250Z,100.00
2023-05-22T03:30:37.895Z,100.00
2023-05-22T03:33:06.303Z,100.00
2023-05-22T03:35:34.513Z,100.00
2023-05-22T03:38:02.585Z,100.00
2023-05-22T03:40:30.909Z,100.00
2023-05-22T03:43:00.425Z,100.00
2023-05-22T03:45:28.755Z,100.00
2023-05-22T03:47:57.242Z,100.00
2023-05-22T03:50:25.513Z,100.00
2023-05-22T03:52:53.864Z,100.00
2023-05-22T03:55:22.115Z,100.00
2023-05-22T03:57:50.279Z,100.00
2023-05-22T04:00:20.904Z,100.00
2023-05-22T04:02:50.604Z,100.00
2023-05-22T04:05:19.426Z,100.00
2023-05-22T04:07:47.522Z,100.00
2023-05-22T04:10:15.695Z,100.00
2023-05-22T04:12:44.474Z,100.00
2023-05-22T04:15:12.818Z,100.00
2023-05-22T04:17:42.928Z,100.00
2023-05-22T04:20:12.408Z,100.00
2023-05-22T04:22:41.432Z,100.00
2023-05-22T04:25:10.607Z,100.00
2023-05-22T04:27:38.929Z,100.00
2023-05-22T04:30:08.994Z,100.00
2023-05-22T04:32:38.401Z,100.00
2023-05-22T04:35:10.194Z,100.00
2023-05-22T04:37:38.560Z,100.00
2023-05-22T04:40:08.618Z,100.00
2023-05-22T04:42:37.443Z,100.00
2023-05-22T04:45:06.270Z,100.00
2023-05-22T04:47:34.512Z,100.00
2023-05-22T04:50:04.025Z,100.00
2023-05-22T04:52:33.626Z,100.00
2023-05-22T04:55:03.840Z,100.00
2023-05-22T04:57:33.460Z,100.00
2023-05-22T05:00:02.057Z,100.00
2023-05-22T05:02:30.490Z,100.00
2023-05-22T05:04:58.741Z,100.00
2023-05-22T05:07:27.977Z,100.00
2023-05-22T05:09:58.582Z,100.00
2023-05-22T05:12:27.465Z,100.00
2023-05-22T05:14:55.724Z,100.00
2023-05-22T05:17:24.063Z,100.00
2023-05-22T05:19:52.417Z,100.00
2023-05-22T05:22:20.687Z,100.00
2023-05-22T05:24:49.296Z,100.00
2023-05-22T05:27:19.237Z,100.00
2023-05-22T05:29:47.497Z,100.00
2023-05-22T05:32:15.929Z,100.00
2023-05-22T05:34:44.256Z,100.00
2023-05-22T05:37:12.710Z,100.00
2023-05-22T05:39:41.005Z,100.00
2023-05-22T05:42:09.334Z,100.00
2023-05-22T05:44:39.516Z,100.00
2023-05-22T05:47:08.144Z,100.00
2023-05-22T05:49:36.748Z,100.00
2023-05-22T05:52:05.740Z,100.00
2023-05-22T05:54:34.114Z,100.00
2023-05-22T05:57:02.311Z,100.00
2023-05-22T05:59:32.200Z,100.00
2023-05-22T06:02:02.331Z,100.00
2023-05-22T06:04:30.462Z,100.00
2023-05-22T06:06:58.583Z,100.00
2023-05-22T06:09:26.922Z,100.00
2023-05-22T06:11:55.229Z,100.00
2023-05-22T06:14:23.807Z,100.00
2023-05-22T06:16:52.223Z,100.00
2023-05-22T06:19:22.077Z,100.00
2023-05-22T06:21:52.139Z,100.00
2023-05-22T06:24:20.449Z,100.00
2023-05-22T06:26:48.622Z,100.00
2023-05-22T06:29:17.070Z,100.00
2023-05-22T06:31:45.325Z,100.00
2023-05-22T06:34:13.698Z,100.00
2023-05-22T06:36:43.821Z,100.00
2023-05-22T06:39:12.171Z,100.00
2023-05-22T06:41:40.754Z,100.00
2023-05-22T06:44:08.846Z,100.00
2023-05-22T06:46:37.289Z,100.00
2023-05-22T06:49:05.418Z,100.00
2023-05-22T06:51:34.374Z,100.00
2023-05-22T06:54:07.122Z,100.00
2023-05-22T06:56:35.275Z,100.00
2023-05-22T06:59:06.037Z,100.00
2023-05-22T07:01:34.643Z,100.00
2023-05-22T07:04:05.208Z,100.00
2023-05-22T07:06:39.251Z,100.00
2023-05-22T07:09:14.938Z,100.00
2023-05-22T07:11:44.153Z,100.00
2023-05-22T07:14:13.293Z,100.00
2023-05-22T07:16:42.626Z,100.00
2023-05-22T07:19:12.166Z,100.00
2023-05-22T07:21:40.412Z,100.00
2023-05-22T07:24:10.530Z,100.00
2023-05-22T07:26:39.310Z,100.00
2023-05-22T07:29:09.087Z,100.00
2023-05-22T07:31:39.380Z,100.00
2023-05-22T07:34:07.871Z,100.00
2023-05-22T07:36:36.285Z,100.00
2023-05-22T07:39:05.489Z,100.00
2023-05-22T07:41:35.203Z,100.00
2023-05-22T07:44:03.776Z,100.00
2023-05-22T07:46:32.013Z,100.00
2023-05-22T07:49:00.241Z,100.00
2023-05-22T07:51:29.186Z,100.00
2023-05-22T07:56:26.193Z,100.00
2023-05-22T07:58:55.826Z,100.00
2023-05-22T08:01:24.391Z,100.00
2023-05-22T08:03:53.061Z,100.00
2023-05-22T08:06:23.278Z,100.00
2023-05-22T08:08:53.885Z,100.00
2023-05-22T08:11:22.582Z,100.00
2023-05-22T08:13:51.017Z,100.00
2023-05-22T08:16:20.740Z,100.00
2023-05-22T08:18:49.343Z,100.00
2023-05-22T08:21:17.920Z,100.00
2023-05-22T08:23:46.989Z,100.00
2023-05-22T08:26:16.661Z,100.00
2023-05-22T08:28:45.039Z,100.00
2023-05-22T08:31:13.502Z,100.00
2023-05-22T08:33:43.421Z,100.00
2023-05-22T08:36:11.833Z,100.00
2023-05-22T08:38:40.549Z,100.00
2023-05-22T08:41:10.216Z,100.00
2023-05-22T08:43:38.666Z,100.00
2023-05-22T08:46:08.945Z,100.00
2023-05-22T08:48:38.497Z,100.00
2023-05-22T08:51:09.774Z,100.00
2023-05-22T08:53:39.135Z,98.60
2023-05-22T08:56:09.710Z,93.83
2023-05-22T08:58:38.898Z,100.00
2023-05-22T09:01:07.713Z,100.00
2023-05-22T09:03:38.240Z,93.70
2023-05-22T09:06:10.525Z,96.43
2023-05-22T09:08:40.917Z,82.21
2023-05-22T09:11:09.207Z,81.69
2023-05-22T09:13:40.743Z,92.08
2023-05-22T09:16:15.383Z,90.26
2023-05-22T09:18:44.049Z,95.53
2023-05-22T09:21:28.708Z,89.66
2023-05-22T09:24:02.208Z,100.00
2023-05-22T09:26:33.199Z,86.87
2023-05-22T09:29:02.068Z,87.21
2023-05-22T09:31:31.039Z,84.85
2023-05-22T09:34:00.681Z,94.22
2023-05-22T09:36:37.482Z,79.01
2023-05-22T09:39:07.491Z,73.74
2023-05-22T09:41:37.858Z,81.18
2023-05-22T09:44:14.185Z,71.17
2023-05-22T09:46:43.571Z,76.17
2023-05-22T09:49:16.066Z,70.19
2023-05-22T09:51:48.498Z,74.86
2023-05-22T09:54:20.131Z,79.94
2023-05-22T09:56:50.723Z,74.06
2023-05-22T09:59:23.859Z,65.70
2023-05-22T10:01:54.488Z,65.73
2023-05-22T10:04:24.694Z,68.46
2023-05-22T10:06:59.143Z,59.48
2023-05-22T10:09:34.417Z,67.81
2023-05-22T10:12:07.687Z,74.43
2023-05-22T10:14:37.796Z,79.60
2023-05-22T10:17:07.618Z,72.86
2023-05-22T10:19:39.737Z,62.01
2023-05-22T10:22:15.069Z,66.37
2023-05-22T10:24:44.128Z,55.39
2023-05-22T10:27:12.740Z,53.96
2023-05-22T10:29:49.094Z,57.28
2023-05-22T10:32:24.988Z,51.44
2023-05-22T10:35:00.966Z,56.68
2023-05-22T10:37:43.435Z,58.44
2023-05-22T10:40:15.190Z,56.34
2023-05-22T10:42:45.242Z,58.02
2023-05-22T10:45:15.236Z,53.41
2023-05-22T10:47:45.190Z,63.88
2023-05-22T10:50:14.130Z,54.50
2023-05-22T10:52:44.282Z,56.25
2023-05-22T10:55:13.240Z,59.41
2023-05-22T10:57:42.043Z,58.37
2023-05-22T11:00:18.933Z,61.80
2023-05-22T11:02:48.206Z,57.84
2023-05-22T11:05:37.692Z,52.22
2023-05-22T11:08:29.065Z,58.18
2023-05-22T11:10:59.354Z,51.46
2023-05-22T11:13:29.484Z,52.58
2023-05-22T11:15:58.645Z,60.29
2023-05-22T11:18:30.826Z,54.41
2023-05-22T11:21:02.190Z,59.06
2023-05-22T11:23:37.613Z,52.91
2023-05-22T11:26:25.585Z,53.25
2023-05-22T11:28:57.706Z,52.17
2023-05-22T11:31:27.324Z,55.04
2023-05-22T11:33:57.971Z,57.67
2023-05-22T11:36:29.133Z,47.21
2023-05-22T11:39:01.320Z,48.22
2023-05-22T11:41:34.760Z,48.56
2023-05-22T11:44:04.812Z,48.65
2023-05-22T11:46:34.549Z,48.31
2023-05-22T11:49:04.864Z,51.20
2023-05-22T11:51:33.453Z,49.89
2023-05-22T11:54:04.277Z,51.97
2023-05-22T11:56:33.545Z,48.62
2023-05-22T11:59:04.601Z,48.32
2023-05-22T12:01:34.681Z,51.07
2023-05-22T12:04:04.076Z,49.98
2023-05-22T12:06:34.029Z,46.80
2023-05-22T12:09:04.331Z,46.95
2023-05-22T12:11:36.560Z,50.09
2023-05-22T12:14:06.279Z,49.63
2023-05-22T12:16:37.214Z,45.56
2023-05-22T12:19:10.016Z,46.23
2023-05-22T12:21:41.164Z,46.59
2023-05-22T12:24:13.010Z,46.68
2023-05-22T12:26:42.236Z,46.93
2023-05-22T12:29:11.119Z,49.15
2023-05-22T12:31:39.710Z,46.02
2023-05-22T12:34:09.230Z,44.46
2023-05-22T12:36:40.591Z,45.76
2023-05-22T12:39:11.693Z,46.40
2023-05-22T12:41:40.783Z,47.87
2023-05-22T12:44:10.735Z,44.06
2023-05-22T12:46:40.283Z,43.39
2023-05-22T12:49:09.549Z,44.96
2023-05-22T12:51:38.178Z,47.23
2023-05-22T12:54:07.633Z,44.40
2023-05-22T12:56:37.735Z,44.46
2023-05-22T12:59:08.597Z,48.14
2023-05-22T13:01:37.150Z,45.24
2023-05-22T13:04:08.570Z,45.22
2023-05-22T13:06:36.896Z,44.82
2023-05-22T13:09:05.578Z,44.22
2023-05-22T13:11:34.027Z,45.61
2023-05-22T13:14:04.464Z,46.47
2023-05-22T13:16:32.782Z,45.29
2023-05-22T13:19:03.614Z,46.42
2023-05-22T13:21:32.558Z,44.21
2023-05-22T13:24:01.415Z,45.31
2023-05-22T13:26:30.016Z,44.82
2023-05-22T13:28:58.898Z,45.09
2023-05-22T13:31:29.258Z,44.51
2023-05-22T13:33:57.935Z,44.77
2023-05-22T13:36:26.560Z,44.69
2023-05-22T13:38:54.924Z,44.67
2023-05-22T13:41:23.380Z,43.16
2023-05-22T13:43:51.897Z,42.55
2023-05-22T13:46:21.485Z,43.99
2023-05-22T13:48:51.533Z,45.37
2023-05-22T13:51:20.245Z,46.36
2023-05-22T13:53:48.384Z,48.18
2023-05-22T13:56:16.947Z,43.26
2023-05-22T13:58:45.472Z,45.03
2023-05-22T14:01:14.144Z,43.72
2023-05-22T14:03:42.660Z,43.71
2023-05-22T14:06:12.378Z,44.20
2023-05-22T14:08:40.768Z,45.40
2023-05-22T14:11:09.299Z,45.01
2023-05-22T14:13:37.847Z,45.76
2023-05-22T14:16:06.979Z,44.97
2023-05-22T14:18:35.330Z,42.90
2023-05-22T14:21:04.984Z,43.11
2023-05-22T14:23:36.951Z,44.93
2023-05-22T14:26:06.004Z,45.10
2023-05-22T14:28:34.177Z,46.09
2023-05-22T14:31:02.657Z,46.20
2023-05-22T14:33:32.426Z,44.84
2023-05-22T14:36:00.855Z,44.88
2023-05-22T14:38:33.888Z,45.67
2023-05-22T14:41:04.330Z,44.83
2023-05-22T14:43:33.598Z,44.27
2023-05-22T14:46:01.868Z,44.22
2023-05-22T14:48:30.303Z,43.55
2023-05-22T14:50:59.007Z,43.37
2023-05-22T14:53:27.662Z,43.35
2023-05-22T14:55:56.013Z,43.14
2023-05-22T14:58:26.631Z,43.80
2023-05-22T15:00:54.922Z,46.37
2023-05-22T15:03:24.006Z,46.54
2023-05-22T15:05:52.733Z,47.85
2023-05-22T15:08:22.182Z,48.13
2023-05-22T15:10:51.076Z,47.60
2023-05-22T15:13:22.416Z,49.05
2023-05-22T15:15:52.486Z,48.67
2023-05-22T15:18:21.231Z,47.81
2023-05-22T15:20:49.895Z,46.24
2023-05-22T15:23:18.912Z,48.58
2023-05-22T15:25:48.230Z,47.02
2023-05-22T15:28:16.594Z,50.41
2023-05-22T15:30:44.930Z,48.45
2023-05-22T15:33:15.564Z,48.83
2023-05-22T15:35:47.076Z,48.56
2023-05-22T15:38:16.647Z,49.25
2023-05-22T15:40:46.106Z,52.56
2023-05-22T15:43:14.525Z,51.83
2023-05-22T15:45:43.315Z,52.98
2023-05-22T15:48:12.737Z,54.34
2023-05-22T15:50:42.654Z,61.69
2023-05-22T15:53:10.995Z,57.96
2023-05-22T15:55:39.474Z,60.71
2023-05-22T15:58:08.108Z,62.88
2023-05-22T16:00:41.295Z,62.06
2023-05-22T16:03:10.348Z,64.37
2023-05-22T16:05:39.611Z,58.46
2023-05-22T16:08:11.256Z,64.74
2023-05-22T16:10:41.769Z,50.97
2023-05-22T16:13:10.945Z,46.68
2023-05-22T16:15:40.433Z,42.83
2023-05-22T16:18:09.976Z,41.10
2023-05-22T16:20:38.815Z,41.95
2023-05-22T16:23:08.754Z,39.69
2023-05-22T16:25:37.163Z,39.76
2023-05-22T16:28:06.386Z,39.49
2023-05-22T16:30:34.580Z,37.34
2023-05-22T16:33:03.211Z,36.28
2023-05-22T16:35:32.060Z,41.03
2023-05-22T16:38:00.477Z,43.16
2023-05-22T16:40:30.151Z,44.69
2023-05-22T16:42:58.893Z,46.63
2023-05-22T16:45:27.359Z,48.71
2023-05-22T16:47:57.193Z,48.13
2023-05-22T16:50:26.159Z,49.67
2023-05-22T16:52:54.730Z,54.20
2023-05-22T16:55:23.525Z,55.63
2023-05-22T16:57:53.643Z,53.55
2023-05-22T17:00:22.797Z,52.71
2023-05-22T17:02:52.582Z,52.21
2023-05-22T17:05:21.660Z,52.67
2023-05-22T17:07:50.238Z,57.78
2023-05-22T17:10:18.774Z,58.90
2023-05-22T17:12:47.273Z,58.10
2023-05-22T17:15:17.146Z,56.83
2023-05-22T17:17:45.831Z,57.80
2023-05-22T17:20:14.224Z,57.93
2023-05-22T17:22:44.173Z,56.45
2023-05-22T17:25:12.524Z,54.49
2023-05-22T17:27:40.717Z,53.32
2023-05-22T17:30:10.128Z,54.35
2023-05-22T17:32:39.810Z,53.91
2023-05-22T17:35:10.046Z,56.22
2023-05-22T17:37:38.634Z,52.63
2023-05-22T17:40:08.157Z,53.40
2023-05-22T17:42:36.692Z,54.71
2023-05-22T17:45:05.248Z,54.56
2023-05-22T17:47:33.476Z,55.69
2023-05-22T17:50:03.288Z,59.24
2023-05-22T17:52:31.624Z,59.55
2023-05-22T17:54:59.894Z,62.01
2023-05-22T17:57:28.013Z,61.79
2023-05-22T17:59:56.456Z,62.79
2023-05-22T18:02:26.623Z,58.38
2023-05-22T18:04:55.086Z,64.68
2023-05-22T18:07:24.745Z,60.53
2023-05-22T18:09:53.165Z,70.31
2023-05-22T18:12:31.256Z,62.84
2023-05-22T18:15:00.557Z,62.89
2023-05-22T18:17:29.031Z,62.08
2023-05-22T18:19:57.298Z,65.39
2023-05-22T18:22:27.062Z,64.45
2023-05-22T18:24:55.254Z,71.82
2023-05-22T18:27:23.931Z,70.27
2023-05-22T18:29:52.623Z,67.60
2023-05-22T18:32:21.116Z,66.86
2023-05-22T18:34:49.883Z,68.67
2023-05-22T18:37:19.057Z,69.61
2023-05-22T18:39:48.942Z,71.24
2023-05-22T18:42:17.924Z,71.96
2023-05-22T18:44:48.706Z,73.55
2023-05-22T18:47:17.444Z,76.38
2023-05-22T18:49:46.251Z,80.48
2023-05-22T18:52:14.577Z,80.79
2023-05-22T18:54:43.110Z,85.40
2023-05-22T18:57:14.302Z,85.11
2023-05-22T18:59:43.568Z,87.86
2023-05-22T19:02:11.909Z,88.27
2023-05-22T19:04:40.451Z,91.32
2023-05-22T19:07:09.250Z,92.13
2023-05-22T19:09:37.412Z,92.76
2023-05-22T19:12:06.343Z,91.16
2023-05-22T19:14:36.065Z,90.25
2023-05-22T19:17:04.516Z,92.78
2023-05-22T19:19:32.925Z,96.60
2023-05-22T19:22:01.604Z,95.05
2023-05-22T19:24:29.909Z,97.39
2023-05-22T19:26:58.516Z,100.00
2023-05-22T19:29:26.635Z,100.00
2023-05-22T19:31:56.609Z,85.80
2023-05-22T19:34:24.832Z,88.11
2023-05-22T19:36:57.992Z,84.75
2023-05-22T19:39:26.848Z,87.35
2023-05-22T19:41:55.430Z,85.90
2023-05-22T19:44:23.882Z,91.72
2023-05-22T19:46:52.488Z,93.96
2023-05-22T19:49:22.454Z,95.79
2023-05-22T19:51:50.704Z,90.88
2023-05-22T19:54:19.188Z,98.11
2023-05-22T19:56:47.324Z,93.48
2023-05-22T19:59:15.848Z,99.33
2023-05-22T20:01:44.368Z,100.00
2023-05-22T20:04:12.951Z,99.14
2023-05-22T20:06:45.355Z,100.00
2023-05-22T20:09:13.498Z,100.00
2023-05-22T20:11:41.590Z,100.00
2023-05-22T20:14:09.786Z,100.00
2023-05-22T20:16:38.400Z,100.00
2023-05-22T20:19:06.671Z,100.00
2023-05-22T20:21:34.933Z,100.00
2023-05-22T20:24:06.209Z,100.00
2023-05-22T20:26:34.404Z,100.00
2023-05-22T20:29:02.620Z,100.00
2023-05-22T20:31:30.855Z,100.00
2023-05-22T20:33:59.322Z,100.00
2023-05-22T20:36:27.542Z,100.00
2023-05-22T20:38:55.782Z,100.00
2023-05-22T20:41:25.677Z,100.00
2023-05-22T20:43:54.468Z,100.00
2023-05-22T20:46:24.418Z,100.00
2023-05-22T20:48:52.744Z,100.00
2023-05-22T20:51:21.776Z,100.00
2023-05-22T20:53:51.502Z,100.00
2023-05-22T20:56:19.675Z,100.00
2023-05-22T20:58:49.585Z,100.00
2023-05-22T21:01:17.785Z,100.00
2023-05-22T21:03:45.928Z,100.00
2023-05-22T21:06:14.229Z,100.00
2023-05-22T21:08:42.462Z,100.00
2023-05-22T21:11:10.592Z,100.00
2023-05-22T21:13:38.939Z,100.00
2023-05-22T21:16:08.777Z,100.00
2023-05-22T21:18:37.062Z,100.00
2023-05-22T21:21:05.255Z,100.00
2023-05-22T21:23:33.331Z,100.00
2023-05-22T21:26:01.794Z,100.00
2023-05-22T21:28:30.411Z,100.00
2023-05-22T21:30:58.466Z,100.00
2023-05-22T21:33:28.007Z,100.00
2023-05-22T21:35:56.390Z,100.00
2023-05-22T21:38:24.514Z,100.00
2023-05-22T21:40:52.913Z,100.00
2023-05-22T21:43:21.059Z,100.00
2023-05-22T21:45:49.197Z,100.00
2023-05-22T21:48:17.478Z,100.00
2023-05-22T21:50:47.251Z,100.00
2023-05-22T21:53:15.453Z,100.00
2023-05-22T21:55:43.619Z,100.00
2023-05-22T21:58:12.527Z,100.00
2023-05-22T22:00:41.093Z,100.00
2023-05-22T22:03:09.527Z,100.00
2023-05-22T22:05:37.999Z,100.00
2023-05-22T22:08:07.733Z,100.00
2023-05-22T22:10:36.406Z,100.00
2023-05-22T22:13:04.573Z,100.00
2023-05-22T22:15:33.922Z,100.00
2023-05-22T22:18:03.325Z,100.00
2023-05-22T22:23:09.300Z,100.00
2023-05-22T22:25:39.348Z,100.00
2023-05-22T22:28:08.514Z,100.00
2023-05-22T22:30:36.793Z,100.00
2023-05-22T22:33:05.120Z,100.00
2023-05-22T22:35:33.621Z,100.00
2023-05-22T22:38:01.787Z,100.00
2023-05-22T22:40:31.217Z,100.00
2023-05-22T22:42:59.300Z,100.00
2023-05-22T22:45:27.428Z,100.00
2023-05-22T22:47:56.662Z,100.00
2023-05-22T22:50:25.522Z,100.00
2023-05-22T22:52:53.919Z,100.00
2023-05-22T22:55:22.558Z,100.00
2023-05-22T22:57:52.271Z,100.00
2023-05-22T23:00:20.678Z,100.00
2023-05-22T23:02:48.840Z,100.00
2023-05-22T23:05:20.176Z,100.00
2023-05-22T23:07:49.203Z,100.00
2023-05-22T23:10:17.763Z,100.00
2023-05-22T23:12:45.833Z,100.00
2023-05-22T23:15:15.983Z,100.00
2023-05-22T23:17:44.218Z,100.00
2023-05-22T23:20:13.460Z,100.00
2023-05-22T23:22:41.664Z,100.00
2023-05-22T23:25:10.373Z,100.00
2023-05-22T23:27:39.378Z,100.00
2023-05-22T23:30:09.475Z,100.00
2023-05-22T23:32:39.038Z,100.00
2023-05-22T23:35:09.723Z,100.00
2023-05-22T23:37:38.176Z,100.00
2023-05-22T23:43:53.940Z,100.00
2023-05-22T23:46:24.643Z,100.00
2023-05-22T23:48:54.596Z,100.00
2023-05-22T23:51:22.922Z,100.00
2023-05-22T23:53:51.164Z,100.00
2023-05-22T23:56:19.329Z,100.00
2023-05-22T23:58:47.589Z,100.00
